Blackberry City, West Virginia
Current Conditions -  °F | °C
As of 5:35 AM on Sunday 26 Oct 2014 (Local Time) from KPBX Reporting Station
Clear Clear  
Wind Chill: 57°   Ceiling: Unl
Heat Index: 57°   Visibility: 10mi
Dew Point: 52°   Wind: 10mph
Humidity: 84%   Direction: 290°WNW
Pressure: 29.96"   Gusts: NA
Location:  37.652°N, 82.1338°W
Report Text: KPBX 260935Z AUTO 29009KT 10SM CLR 14/11 A2996 RMK AO2 T01370110
Loading
Personal Weather Stations






























Interactive Weather Map
Tropical Storm Tracking
New forecast layout! Learn more

10-Day Weather Forecast

Advertisements
Track Severe Weather on mobile